Portada
METAR-TAF:

METAR-TAF

Aeroports :

Miri, Malàisia

latitud: 04-20N, longitud: 113-59E, altitud: 17 m

Observació

L'informe es va fer fa 18 minuts, a les 11:00 UTC
Vent 3 kt del Nord-Oest, variant entre Oest/Sud-Oest i Nord/Nord-Est
Temperatura 29°C
Humitat 79%
Pressió 1010 hPa
Visibilitat: 6000 m
Núvols disperses a una alçada de 1600 ft
Cel ennuvolat a una alçada de 15000 ft

METAR: WBGR 181100Z 32003KT 250V020 6000 SCT016 BKN150 29/25 Q1010

Hora: 19:18 (11:18 UTC)

Pronòstic

L'informe es va fer fa 6 hores i 18 minuts, a les 05:00 UTC
Pronòstic vàlid del 18 a les 06 UTC al 19 a les 06 UTC
Vent 2 kt amb direcció variable
Visibilitat: 6000 m
Núvols disperses a una alçada de 1600 ft

TAF: WBGR 180500Z 1806/1906 VRB02KT 6000 SCT016

Observacions i pronòstics meteorològics de més de 4000 aeroports (METAR i TAF).

Les estacions disponibles són els punts grocs i vermells al mapa.

Posi el ratolí al punt desitjat per veure el nom de l'estació.

Feu clic per veure les observacions i els pronòstics meteorològics.

Per canviar el mapa: feu clic els botons verds amb una creu de color negre per apropar; al botó verd amb un guió per allunyar la imatge; o en les fletxes verdes per a mapes adjacents.


METAR-TAF: